Time;durP1;ratioP1;P1;durP2;ratioP2;P2;SDS_P1;SDS_P2;PMS_P1;PMS_P2;Temp;Humidity;BMP_temperature;BMP_pressure;BME280_temperature;BME280_humidity;BME280_pressure;Samples;Min_cycle;Max_cycle;Signal;HPM_P1;HPM_P2
2021/11/15 00:00:25;;;;;;;;;43.00;34.25;;;;;8.87;75.25;101199.50;5036069;28;45393;-79
2021/11/15 00:02:51;;;;;;;;;44.50;36.25;;;;;8.91;75.43;101201.13;5035881;28;46088;-79
2021/11/15 00:05:17;;;;;;;;;41.25;35.00;;;;;8.92;75.28;101198.41;5035741;28;45234;-78
2021/11/15 00:07:42;;;;;;;;;37.25;33.00;;;;;8.92;75.52;101202.81;5034654;28;45211;-79
2021/11/15 00:10:08;;;;;;;;;39.00;33.00;;;;;8.92;75.56;101203.72;5036177;28;45271;-79
2021/11/15 00:12:34;;;;;;;;;35.00;31.75;;;;;8.90;75.44;101200.25;5036226;28;46663;-79
2021/11/15 00:14:59;;;;;;;;;42.50;32.50;;;;;8.91;75.34;101199.31;5035874;28;45218;-79
2021/11/15 00:17:25;;;;;;;;;39.50;35.50;;;;;8.96;75.20;101207.09;5036088;28;45459;-79
2021/11/15 00:19:50;;;;;;;;;36.25;33.50;;;;;8.96;75.40;101201.78;5036075;28;45287;-79
2021/11/15 00:22:15;;;;;;;;;41.25;35.00;;;;;9.00;75.15;101205.22;5035983;28;46142;-79
2021/11/15 00:24:41;;;;;;;;;38.75;35.50;;;;;9.01;75.29;101206.91;5036004;28;45210;-79
2021/11/15 00:27:06;;;;;;;;;44.00;37.75;;;;;9.02;75.17;101211.31;5039129;28;45291;-78
2021/11/15 00:29:31;;;;;;;;;38.50;34.25;;;;;9.01;75.26;101206.91;5039439;28;45236;-79
2021/11/15 00:31:57;;;;;;;;;45.25;36.00;;;;;9.03;75.15;101208.59;5038297;28;46124;-79
2021/11/15 00:34:22;;;;;;;;;39.25;35.50;;;;;9.02;75.19;101212.19;5039521;28;45135;-79
2021/11/15 00:36:48;;;;;;;;;44.25;34.50;;;;;9.03;75.29;101211.25;5039311;28;45121;-78
2021/11/15 00:39:13;;;;;;;;;49.25;37.00;;;;;9.04;74.80;101217.44;5039471;28;45227;-78
2021/11/15 00:41:39;;;;;;;;;36.75;34.50;;;;;9.04;74.76;101220.09;5039220;28;45445;-78
2021/11/15 00:44:04;;;;;;;;;38.50;34.50;;;;;9.02;74.64;101212.19;5039317;28;45123;-79
2021/11/15 00:46:30;;;;;;;;;45.00;35.75;;;;;9.03;74.76;101218.34;5039415;28;45270;-79
2021/11/15 00:48:55;;;;;;;;;40.00;33.50;;;;;9.03;74.48;101221.00;5039161;28;45302;-79
2021/11/15 00:51:25;;;;;;;;;44.00;33.00;;;;;9.02;74.58;101221.91;5039111;28;45972;-79
2021/11/15 00:53:51;;;;;;;;;38.00;32.25;;;;;8.99;74.49;101222.88;5039410;28;45727;-78
2021/11/15 00:56:16;;;;;;;;;41.50;35.50;;;;;8.95;74.57;101213.31;5039111;28;45200;-79
2021/11/15 00:58:42;;;;;;;;;40.50;36.25;;;;;8.96;74.53;101207.09;5039430;28;45217;-78
2021/11/15 01:01:08;;;;;;;;;43.00;35.75;;;;;8.96;74.54;101205.34;5038931;28;45901;-79
2021/11/15 01:03:33;;;;;;;;;47.00;38.00;;;;;8.99;74.21;101212.28;5039157;28;45281;-79
2021/11/15 01:06:00;;;;;;;;;38.00;33.75;;;;;8.97;74.82;101206.19;5038942;28;45340;-79
2021/11/15 01:08:26;;;;;;;;;40.75;34.75;;;;;8.94;74.27;101198.34;5039133;28;45389;-79
2021/11/15 01:10:52;;;;;;;;;38.25;32.50;;;;;8.97;74.52;101212.34;5038631;28;45344;-79
2021/11/15 01:13:19;;;;;;;;;46.25;34.00;;;;;8.96;74.29;101207.09;5039218;28;45697;-79
2021/11/15 01:15:45;;;;;;;;;42.25;36.00;;;;;8.93;74.19;101204.56;5038860;28;45199;-79
2021/11/15 01:18:11;;;;;;;;;42.75;36.50;;;;;8.86;74.15;101198.63;5039084;28;45277;-79
2021/11/15 01:20:37;;;;;;;;;40.00;34.00;;;;;8.86;74.05;101201.28;5038292;28;45589;-79
2021/11/15 01:23:04;;;;;;;;;46.00;38.25;;;;;8.87;74.40;101199.50;5038953;28;45212;-79
2021/11/15 01:25:30;;;;;;;;;39.25;34.50;;;;;8.87;74.08;101197.72;5038698;28;45152;-78
2021/11/15 01:27:55;;;;;;;;;40.25;34.25;;;;;8.84;74.29;101194.31;5038889;28;45258;-79
2021/11/15 01:30:22;;;;;;;;;37.75;33.75;;;;;8.81;74.31;101206.75;5038484;28;45727;-79
2021/11/15 01:32:48;;;;;;;;;40.00;34.25;;;;;8.75;74.11;101207.00;5039024;28;45327;-79
2021/11/15 01:35:15;;;;;;;;;43.75;33.75;;;;;8.77;74.19;101207.78;5038820;28;45175;-79
2021/11/15 01:37:41;;;;;;;;;46.25;34.25;;;;;8.75;74.14;101207.00;5037475;28;45247;-79
2021/11/15 01:40:10;;;;;;;;;37.25;34.50;;;;;8.70;74.01;101203.63;5038217;28;47402;-79
2021/11/15 01:42:35;;;;;;;;;36.00;31.50;;;;;8.69;74.02;101209.84;5038737;28;45740;-79
2021/11/15 01:45:01;;;;;;;;;45.50;38.25;;;;;8.65;74.26;101210.91;5038661;28;45212;-79
2021/11/15 01:47:26;;;;;;;;;50.50;41.50;;;;;8.62;74.08;101213.66;5038361;28;45217;-79
2021/11/15 01:49:52;;;;;;;;;45.25;37.75;;;;;8.63;74.23;101218.91;5038116;28;45318;-79
2021/11/15 01:52:17;;;;;;;;;46.25;38.25;;;;;8.60;74.01;101221.66;5038345;28;45221;-79
2021/11/15 01:54:43;;;;;;;;;43.75;37.75;;;;;8.59;74.46;101221.72;5038437;28;45227;-79
2021/11/15 01:57:08;;;;;;;;;47.75;37.50;;;;;8.59;74.42;101229.69;5038475;28;45264;-79
2021/11/15 01:59:34;;;;;;;;;42.00;36.00;;;;;8.57;74.22;101226.22;5036963;28;46109;-79
2021/11/15 02:02:00;;;;;;;;;41.75;35.75;;;;;8.50;74.42;101214.97;5037961;28;45242;-79
2021/11/15 02:04:25;;;;;;;;;42.25;35.75;;;;;8.52;73.85;101223.72;5038328;28;45207;-79
2021/11/15 02:06:52;;;;;;;;;35.00;33.50;;;;;8.51;74.24;101222.03;5038019;28;45052;-79
2021/11/15 02:09:18;;;;;;;;;40.75;36.25;;;;;8.49;74.09;101221.19;5036335;28;47234;-79
2021/11/15 02:11:43;;;;;;;;;40.75;35.75;;;;;8.49;74.34;101225.63;5038117;28;45227;-79
2021/11/15 02:14:09;;;;;;;;;46.75;36.00;;;;;8.50;74.05;101224.72;5038201;28;45236;-79
2021/11/15 02:16:34;;;;;;;;;49.25;39.00;;;;;8.50;74.29;101219.44;5038161;28;45252;-79
2021/11/15 02:19:00;;;;;;;;;41.75;34.50;;;;;8.46;74.26;101221.31;5037522;28;45842;-79
2021/11/15 02:21:25;;;;;;;;;41.25;33.25;;;;;8.48;74.30;101221.25;5037512;28;45182;-79
2021/11/15 02:23:52;;;;;;;;;42.75;35.50;;;;;8.47;73.87;101228.34;5038133;28;45258;-79
2021/11/15 02:26:21;;;;;;;;;38.25;33.75;;;;;8.41;74.00;101215.28;5037657;28;45240;-79
2021/11/15 02:28:48;;;;;;;;;41.50;35.50;;;;;8.44;73.92;101225.78;5037837;28;46555;-79
2021/11/15 02:31:24;;;;;;;;;43.00;36.50;;;;;8.40;73.99;101225.00;5037354;28;45645;-79
2021/11/15 02:33:51;;;;;;;;;45.25;37.75;;;;;8.38;74.26;101224.22;5038139;28;45254;-79
2021/11/15 02:36:18;;;;;;;;;50.00;37.75;;;;;8.38;73.93;101225.97;5037315;28;45207;-79
2021/11/15 02:38:43;;;;;;;;;50.00;41.00;;;;;8.34;74.01;101219.94;5037660;28;45590;-79
2021/11/15 02:41:09;;;;;;;;;45.00;36.25;;;;;8.36;74.09;101223.38;5037373;28;45206;-79
2021/11/15 02:43:34;;;;;;;;;43.75;37.25;;;;;8.38;74.18;101220.66;5037876;28;45183;-79
2021/11/15 02:46:00;;;;;;;;;42.50;36.25;;;;;8.36;73.63;101222.53;5036201;28;45256;-77
2021/11/15 02:48:27;;;;;;;;;37.75;35.25;;;;;8.34;73.79;101219.03;5037135;28;45266;-77
2021/11/15 02:50:53;;;;;;;;;46.00;37.00;;;;;8.31;74.07;101220.03;5036999;28;45752;-77
2021/11/15 02:53:19;;;;;;;;;50.50;38.75;;;;;8.26;74.11;101219.31;5037666;28;45301;-77
2021/11/15 02:55:44;;;;;;;;;42.50;35.75;;;;;8.24;73.71;101221.19;5037447;28;45253;-77
2021/11/15 02:58:11;;;;;;;;;42.00;37.25;;;;;8.23;73.80;101219.44;5037474;28;45169;-77
2021/11/15 03:00:44;;;;;;;;;40.00;33.75;;;;;8.19;73.83;101205.44;5037242;28;45796;-77
2021/11/15 03:03:12;;;;;;;;;42.25;36.00;;;;;8.20;73.81;101216.91;5037554;28;45115;-77
2021/11/15 03:05:40;;;;;;;;;40.25;33.50;;;;;8.14;73.48;101215.34;5037092;28;45308;-77
2021/11/15 03:08:07;;;;;;;;;46.25;36.75;;;;;8.10;73.88;101214.56;5036914;28;47027;-78
2021/11/15 03:10:35;;;;;;;;;42.50;35.50;;;;;8.05;73.47;101215.63;5036793;28;45315;-77
2021/11/15 03:13:03;;;;;;;;;42.50;35.50;;;;;8.02;73.52;101221.03;5037479;28;45495;-78
2021/11/15 03:15:32;;;;;;;;;37.50;35.00;;;;;7.97;73.74;101215.91;5035513;28;45362;-78
2021/11/15 03:18:02;;;;;;;;;36.75;34.75;;;;;7.94;73.95;101214.22;5036608;28;47308;-78
2021/11/15 03:20:30;;;;;;;;;45.00;36.25;;;;;7.89;73.73;101210.84;5037025;28;45186;-78
2021/11/15 03:22:56;;;;;;;;;41.00;33.00;;;;;7.90;74.00;101217.03;5037483;28;45199;-78
2021/11/15 03:25:28;;;;;;;;;42.25;36.00;;;;;7.88;74.18;101217.09;5036769;28;46332;-78
2021/11/15 03:27:56;;;;;;;;;33.50;29.75;;;;;7.85;74.08;101213.66;5036823;28;45446;-77
2021/11/15 03:30:22;;;;;;;;;34.75;32.75;;;;;7.79;73.63;101204.13;5036790;28;45206;-77
2021/11/15 03:32:49;;;;;;;;;37.50;33.50;;;;;7.78;73.48;101210.34;5036911;28;45202;-77
2021/11/15 03:35:16;;;;;;;;;40.25;36.25;;;;;7.78;73.66;101218.28;5036840;28;45209;-77
2021/11/15 03:37:42;;;;;;;;;43.75;33.75;;;;;7.74;73.99;101212.25;5036585;28;45280;-77
2021/11/15 03:40:13;;;;;;;;;36.00;32.50;;;;;7.71;73.99;101212.34;5036593;28;45288;-77
2021/11/15 03:42:39;;;;;;;;;38.00;33.00;;;;;7.71;74.19;101214.13;5035441;28;45179;-77
2021/11/15 03:45:05;;;;;;;;;39.00;33.25;;;;;7.70;74.43;101212.41;5036979;28;45238;-77
2021/11/15 03:47:31;;;;;;;;;39.00;32.25;;;;;7.68;74.46;101212.47;5035025;28;48124;-78
2021/11/15 03:49:57;;;;;;;;;44.25;34.75;;;;;7.60;74.20;101207.41;5036213;28;45267;-77
2021/11/15 03:52:23;;;;;;;;;44.25;35.25;;;;;7.59;73.86;101216.25;5036690;28;45253;-77
2021/11/15 03:54:49;;;;;;;;;38.00;33.50;;;;;7.58;74.00;101211.88;5036441;28;45389;-78
2021/11/15 03:57:14;;;;;;;;;40.50;37.00;;;;;7.61;73.90;101218.88;5036485;28;45245;-78
2021/11/15 03:59:39;;;;;;;;;41.00;36.00;;;;;7.60;74.11;101219.78;5035688;28;45295;-77
2021/11/15 04:02:06;;;;;;;;;36.25;32.25;;;;;7.59;74.16;101220.69;5036115;28;45261;-77
2021/11/15 04:04:48;;;;;;;;;37.75;33.25;;;;;7.57;74.79;101222.53;5036518;28;45164;-77
2021/11/15 04:07:14;;;;;;;;;42.25;35.00;;;;;7.58;74.56;101232.16;5036020;28;47153;-77
2021/11/15 04:09:39;;;;;;;;;42.75;34.00;;;;;7.57;74.50;101230.47;5036201;28;45348;-78
2021/11/15 04:12:05;;;;;;;;;45.50;35.75;;;;;7.52;74.13;101209.41;5036594;28;45202;-77
2021/11/15 04:14:30;;;;;;;;;38.25;33.50;;;;;7.55;74.91;101217.28;5036331;28;45263;-77
2021/11/15 04:16:58;;;;;;;;;37.00;32.75;;;;;7.53;74.63;101212.94;5036054;28;45208;-77
2021/11/15 04:19:23;;;;;;;;;41.00;35.50;;;;;7.55;74.40;101221.69;5035733;28;45621;-77
2021/11/15 04:21:50;;;;;;;;;43.00;36.25;;;;;7.57;74.46;101223.38;5036301;28;45191;-78
2021/11/15 04:24:16;;;;;;;;;45.50;37.00;;;;;7.59;74.63;101220.69;5035854;28;45300;-78
2021/11/15 04:26:41;;;;;;;;;44.00;36.75;;;;;7.58;74.83;101219.81;5035928;28;46226;-77
2021/11/15 04:29:07;;;;;;;;;47.50;37.25;;;;;7.55;74.72;101208.47;5035995;28;45185;-78
2021/11/15 04:31:32;;;;;;;;;43.25;34.50;;;;;7.60;74.67;101214.47;5035974;28;45250;-78
2021/11/15 04:33:57;;;;;;;;;42.25;35.25;;;;;7.62;74.66;101211.78;5034730;28;45282;-77
2021/11/15 04:36:23;;;;;;;;;45.25;36.50;;;;;7.55;74.27;101203.16;5035558;28;45243;-77
2021/11/15 04:38:50;;;;;;;;;45.25;35.50;;;;;7.60;74.39;101204.75;5036026;28;45184;-77
2021/11/15 04:41:15;;;;;;;;;45.25;37.50;;;;;7.59;74.32;101202.16;5036017;28;45199;-77
2021/11/15 04:43:40;;;;;;;;;40.50;36.25;;;;;7.63;74.07;101208.22;5036184;28;45231;-76
2021/11/15 04:46:06;;;;;;;;;39.25;35.25;;;;;7.60;74.49;101214.47;5035497;28;46263;-77
2021/11/15 04:48:31;;;;;;;;;42.25;36.00;;;;;7.57;74.36;101210.16;5036213;28;45207;-77
2021/11/15 04:50:57;;;;;;;;;40.25;33.50;;;;;7.56;74.27;101213.69;5035807;28;45350;-77
2021/11/15 04:53:22;;;;;;;;;43.50;33.00;;;;;7.50;74.36;101210.41;5036013;28;45123;-76
2021/11/15 04:55:48;;;;;;;;;43.75;36.50;;;;;7.45;74.71;101210.53;5034334;28;46353;-77
2021/11/15 04:58:14;;;;;;;;;36.00;31.50;;;;;7.41;74.82;101215.06;5035750;28;45176;-77
2021/11/15 05:00:39;;;;;;;;;46.25;36.25;;;;;7.36;75.13;101200.25;5035507;28;45264;-77
2021/11/15 05:03:05;;;;;;;;;37.75;31.75;;;;;7.36;74.65;101205.53;5035593;28;45286;-77
2021/11/15 05:05:30;;;;;;;;;43.00;34.50;;;;;7.33;74.83;101200.34;5035380;28;45281;-77
2021/11/15 05:07:57;;;;;;;;;40.25;34.50;;;;;7.34;75.21;101208.25;5035400;28;45299;-77
2021/11/15 05:10:24;;;;;;;;;41.50;34.00;;;;;7.33;75.34;101208.28;5034909;28;45256;-77
2021/11/15 05:12:50;;;;;;;;;43.00;35.75;;;;;7.32;75.02;101209.19;5037876;28;45305;-77
2021/11/15 05:15:19;;;;;;;;;49.00;36.50;;;;;7.30;75.08;101203.97;5038997;28;45281;-77
2021/11/15 05:17:50;;;;;;;;;37.75;33.00;;;;;7.32;75.49;101203.91;5038855;28;45649;-78
2021/11/15 05:20:17;;;;;;;;;37.25;33.50;;;;;7.32;75.35;101209.19;5038921;28;45204;-78
2021/11/15 05:22:42;;;;;;;;;47.25;37.75;;;;;7.33;75.47;101210.94;5039130;28;45223;-78
2021/11/15 05:25:09;;;;;;;;;41.50;36.00;;;;;7.28;75.44;101205.75;5038640;28;46060;-78
2021/11/15 05:27:36;;;;;;;;;41.00;36.25;;;;;7.31;75.55;101205.69;5037242;28;45278;-78
2021/11/15 05:30:04;;;;;;;;;45.00;35.75;;;;;7.29;75.51;101199.56;5038286;28;45341;-78
2021/11/15 05:32:30;;;;;;;;;43.75;36.75;;;;;7.29;75.65;101204.84;5039052;28;45316;-77
2021/11/15 05:34:57;;;;;;;;;42.25;34.25;;;;;7.27;75.18;101201.41;5038515;28;45298;-78
2021/11/15 05:37:22;;;;;;;;;44.25;35.50;;;;;7.25;75.40;101203.22;5038556;28;45301;-78
2021/11/15 05:39:47;;;;;;;;;40.50;35.75;;;;;7.24;75.72;101202.38;5038723;28;45162;-78
2021/11/15 05:42:13;;;;;;;;;40.25;36.00;;;;;7.25;76.05;101208.50;5038616;28;45173;-78
2021/11/15 05:44:38;;;;;;;;;35.75;30.00;;;;;7.25;75.91;101211.16;5037024;28;46130;-77
2021/11/15 05:47:04;;;;;;;;;45.25;37.00;;;;;7.26;75.59;101216.41;5038498;28;45220;-78
2021/11/15 05:49:30;;;;;;;;;43.25;37.50;;;;;7.29;75.97;101217.22;5038708;28;45164;-79
2021/11/15 05:51:56;;;;;;;;;45.50;36.50;;;;;7.29;75.80;101217.22;5038211;28;45273;-78
2021/11/15 05:54:21;;;;;;;;;44.25;34.50;;;;;7.30;75.50;101216.31;5038210;28;45977;-78
2021/11/15 05:56:47;;;;;;;;;38.25;34.00;;;;;7.28;75.84;101212.84;5038519;28;45381;-78
2021/11/15 05:59:13;;;;;;;;;40.25;34.50;;;;;7.24;75.88;101212.09;5038294;28;45174;-78
2021/11/15 06:01:39;;;;;;;;;44.25;36.00;;;;;7.30;76.09;101217.19;5038296;28;45290;-82
2021/11/15 06:04:05;;;;;;;;;42.75;34.25;;;;;7.29;76.53;101210.16;5038338;28;46528;-82
2021/11/15 06:06:30;;;;;;;;;41.00;35.25;;;;;7.26;76.26;101212.91;5038219;28;45242;-83
2021/11/15 06:08:56;;;;;;;;;47.00;36.75;;;;;7.30;76.04;101224.25;5038287;28;45287;-82
2021/11/15 06:11:21;;;;;;;;;41.25;34.75;;;;;7.28;76.07;101220.78;5036525;28;45517;-83
2021/11/15 06:13:46;;;;;;;;;41.50;36.75;;;;;7.32;76.10;101233.00;5036776;28;47350;-78
2021/11/15 06:16:12;;;;;;;;;39.75;34.75;;;;;7.26;76.31;101228.75;5037636;28;45228;-78
2021/11/15 06:18:38;;;;;;;;;43.75;34.50;;;;;7.30;76.30;101230.41;5037823;28;45232;-78
2021/11/15 06:21:03;;;;;;;;;39.00;34.50;;;;;7.34;76.19;101233.81;5037997;28;45198;-78
2021/11/15 06:23:29;;;;;;;;;46.25;36.00;;;;;7.33;76.17;101238.25;5037193;28;45420;-78
2021/11/15 06:25:54;;;;;;;;;46.25;37.25;;;;;7.36;76.35;101232.00;5037822;28;45208;-78
2021/11/15 06:28:20;;;;;;;;;41.75;36.75;;;;;7.35;76.75;101236.41;5038237;28;45179;-78
2021/11/15 06:30:45;;;;;;;;;37.25;33.50;;;;;7.34;76.58;101234.69;5037538;28;45281;-78
2021/11/15 06:33:10;;;;;;;;;40.00;36.00;;;;;7.35;76.43;101233.75;5037630;28;45386;-78
2021/11/15 06:35:36;;;;;;;;;40.00;32.50;;;;;7.40;76.42;101241.56;5037567;28;45282;-78
2021/11/15 06:38:01;;;;;;;;;43.50;34.50;;;;;7.44;76.86;101245.88;5037969;28;45325;-78
2021/11/15 06:40:27;;;;;;;;;42.75;34.00;;;;;7.49;76.91;101246.56;5036328;28;45370;-78
2021/11/15 06:42:53;;;;;;;;;42.00;34.75;;;;;7.53;76.29;101256.13;5037564;28;46076;-78
2021/11/15 06:45:18;;;;;;;;;41.75;31.25;;;;;7.50;76.44;101253.59;5037598;28;45806;-78
2021/11/15 06:47:44;;;;;;;;;42.25;37.00;;;;;7.52;76.40;101251.75;5037590;28;45179;-78
2021/11/15 06:50:13;;;;;;;;;43.00;35.75;;;;;7.53;76.56;101248.19;5035957;28;45226;-78
2021/11/15 06:52:38;;;;;;;;;42.75;35.25;;;;;7.58;76.56;101258.63;5037456;28;45286;-78
2021/11/15 06:55:05;;;;;;;;;35.00;29.50;;;;;7.57;76.26;101257.78;5037414;28;45171;-78
2021/11/15 06:57:31;;;;;;;;;37.50;33.50;;;;;7.63;76.30;101263.81;5037658;28;45262;-78
2021/11/15 06:59:57;;;;;;;;;49.00;39.00;;;;;7.65;76.26;101259.31;5037427;28;45200;-78
2021/11/15 07:02:22;;;;;;;;;38.25;33.25;;;;;7.64;75.97;101250.53;5035909;28;47955;-78
2021/11/15 07:04:48;;;;;;;;;50.00;36.75;;;;;7.63;76.27;101250.56;5035771;28;45748;-78
2021/11/15 07:07:14;;;;;;;;;36.00;33.25;;;;;7.62;76.24;101260.28;5035684;28;45246;-78
2021/11/15 07:09:40;;;;;;;;;39.25;33.25;;;;;7.66;76.24;101261.06;5036792;28;45246;-78
2021/11/15 07:12:06;;;;;;;;;40.25;34.25;;;;;7.69;76.02;101266.25;5036935;28;45508;-78
2021/11/15 07:14:32;;;;;;;;;46.25;38.00;;;;;7.72;76.41;101271.44;5037234;28;45710;-77
2021/11/15 07:16:57;;;;;;;;;43.75;35.75;;;;;7.75;76.44;101264.28;5037160;28;45211;-78
2021/11/15 07:19:22;;;;;;;;;40.25;35.75;;;;;7.75;75.99;101264.28;5036786;28;45205;-78
2021/11/15 07:21:48;;;;;;;;;36.50;32.75;;;;;7.77;75.97;101272.16;5036804;28;45289;-78
2021/11/15 07:24:13;;;;;;;;;44.50;36.00;;;;;7.73;76.13;101265.25;5037113;28;45323;-78
2021/11/15 07:26:39;;;;;;;;;42.75;34.25;;;;;7.74;76.22;101273.13;5037057;28;45183;-78
2021/11/15 07:29:04;;;;;;;;;48.75;37.50;;;;;7.70;76.32;101270.63;5036568;28;45291;-79
2021/11/15 07:31:29;;;;;;;;;44.67;36.00;;;;;7.71;76.39;101275.00;5036747;28;46431;-78
2021/11/15 07:33:56;;;;;;;;;41.25;36.00;;;;;7.74;76.30;101291.66;5036508;28;45174;-78
2021/11/15 07:36:22;;;;;;;;;38.75;32.50;;;;;7.73;76.05;101287.28;5036777;28;45264;-79
2021/11/15 07:38:48;;;;;;;;;46.75;36.00;;;;;7.72;76.32;101288.19;5036613;28;45251;-78
2021/11/15 07:41:14;;;;;;;;;38.25;34.25;;;;;7.74;76.31;101288.16;5036433;28;46504;-78
2021/11/15 07:43:39;;;;;;;;;38.75;33.00;;;;;7.72;76.48;101295.25;5036656;28;45245;-78
2021/11/15 07:46:04;;;;;;;;;37.50;32.50;;;;;7.70;75.96;101290.03;5036780;28;45188;-78
2021/11/15 07:48:30;;;;;;;;;45.00;36.00;;;;;7.74;76.15;101298.75;5036799;28;45224;-78
2021/11/15 07:50:56;;;;;;;;;45.00;34.50;;;;;7.73;75.89;101299.66;5036158;28;45409;-78
2021/11/15 07:53:22;;;;;;;;;47.50;32.25;;;;;7.63;76.37;101293.78;5036606;28;45291;-78
2021/11/15 07:55:47;;;;;;;;;37.00;33.00;;;;;7.68;76.33;101301.56;5036379;28;45061;-78
2021/11/15 07:58:14;;;;;;;;;36.25;33.00;;;;;7.69;76.00;101308.59;5036691;28;45216;-78
2021/11/15 08:00:40;;;;;;;;;33.00;30.00;;;;;7.69;76.48;101305.94;5035933;28;46200;-78
2021/11/15 08:03:06;;;;;;;;;49.50;35.50;;;;;7.72;76.25;101309.34;5036468;28;45174;-78
2021/11/15 08:05:32;;;;;;;;;36.00;33.00;;;;;7.74;76.61;101312.84;5035106;28;45214;-78
2021/11/15 08:07:58;;;;;;;;;39.00;29.50;;;;;7.70;76.39;101303.25;5036207;28;45395;-78
2021/11/15 08:10:24;;;;;;;;;37.75;33.75;;;;;7.77;76.38;101317.16;5036381;28;45378;-78
2021/11/15 08:12:53;;;;;;;;;41.50;35.75;;;;;7.78;76.43;101321.53;5036348;28;45301;-78
2021/11/15 08:15:21;;;;;;;;;33.00;30.00;;;;;7.77;76.54;101322.47;5036238;28;45147;-78
2021/11/15 08:17:51;;;;;;;;;35.50;31.50;;;;;7.80;76.03;101325.00;5036070;28;45276;-79
2021/11/15 08:20:21;;;;;;;;;38.00;33.00;;;;;7.80;75.94;101321.50;5035849;28;45176;-78
2021/11/15 08:22:49;;;;;;;;;37.00;30.25;;;;;7.80;75.94;101317.06;5035896;28;45761;-78
2021/11/15 08:25:30;;;;;;;;;35.00;30.75;;;;;7.81;75.85;101316.16;5036066;28;45250;-78
2021/11/15 08:27:56;;;;;;;;;34.25;29.75;;;;;7.80;75.71;101319.72;5036232;28;45042;-79
2021/11/15 08:30:23;;;;;;;;;39.00;30.75;;;;;7.77;75.77;101320.69;5035796;28;46167;-79
2021/11/15 08:32:49;;;;;;;;;26.75;25.75;;;;;7.74;75.76;101310.19;5051329;28;46229;-79
2021/11/15 08:35:17;;;;;;;;;35.50;30.25;;;;;7.70;76.14;101302.41;5036122;28;45274;-79
2021/11/15 08:38:13;;;;;;;;;35.75;29.00;;;;;7.73;75.99;101319.03;5036306;28;45247;-79
2021/11/15 08:40:38;;;;;;;;;32.25;29.25;;;;;7.74;75.96;101314.63;5034389;28;48291;-79
2021/11/15 08:43:03;;;;;;;;;36.50;32.25;;;;;7.75;75.81;101316.34;5036052;28;45261;-79
2021/11/15 08:45:31;;;;;;;;;31.50;28.50;;;;;7.74;75.94;101322.56;5035910;28;45080;-79
2021/11/15 08:47:57;;;;;;;;;31.25;29.50;;;;;7.74;76.05;101325.22;5037281;28;45202;-78
2021/11/15 08:50:22;;;;;;;;;32.00;27.50;;;;;7.73;76.06;101318.19;5039161;28;46190;-79
2021/11/15 08:52:47;;;;;;;;;32.50;25.75;;;;;7.75;76.16;101322.53;5039331;28;45186;-79
2021/11/15 08:55:13;;;;;;;;;29.00;28.00;;;;;7.77;76.29;101322.47;5039505;28;45213;-79
2021/11/15 08:57:38;;;;;;;;;34.50;31.00;;;;;7.76;76.51;101312.78;5039754;28;45311;-79
2021/11/15 09:00:04;;;;;;;;;35.67;32.00;;;;;7.76;76.11;101313.63;5039164;28;45262;-79
2021/11/15 09:02:29;;;;;;;;;27.75;27.50;;;;;7.80;75.97;101317.06;5039368;28;45710;-78
2021/11/15 09:04:55;;;;;;;;;33.67;29.00;;;;;7.81;76.02;101312.63;5039314;28;45208;-79
2021/11/15 09:07:21;;;;;;;;;35.50;30.50;;;;;7.82;76.39;101302.00;5039058;28;45491;-79
2021/11/15 09:09:46;;;;;;;;;36.50;32.25;;;;;7.85;76.44;101306.31;5039010;28;46122;-79
2021/11/15 09:12:12;;;;;;;;;37.00;32.00;;;;;7.87;76.32;101301.88;5039008;28;45153;-79
2021/11/15 09:14:38;;;;;;;;;36.75;30.00;;;;;7.86;76.36;101287.75;5037798;28;45252;-79
2021/11/15 09:17:05;;;;;;;;;37.25;32.00;;;;;7.87;76.06;101293.94;5039285;28;45239;-79
2021/11/15 09:19:30;;;;;;;;;29.75;28.00;;;;;7.92;76.43;101298.16;5038968;28;45202;-79
2021/11/15 09:21:56;;;;;;;;;36.33;26.67;;;;;7.95;76.22;101294.50;5038912;28;45164;-79
2021/11/15 09:24:22;;;;;;;;;32.75;27.00;;;;;7.97;75.84;101302.41;5039262;28;45367;-79
2021/11/15 09:26:48;;;;;;;;;39.00;30.50;;;;;7.97;76.20;101300.66;5039015;28;45205;-79
2021/11/15 09:29:14;;;;;;;;;34.75;26.50;;;;;7.99;75.84;101301.44;5038519;28;46262;-79
2021/11/15 09:31:40;;;;;;;;;38.75;32.00;;;;;8.02;76.11;101311.09;5038616;28;45648;-79
2021/11/15 09:34:06;;;;;;;;;29.00;27.00;;;;;8.05;76.19;101308.31;5038607;28;45290;-79
2021/11/15 09:36:31;;;;;;;;;32.25;29.00;;;;;8.05;75.88;101317.16;5038757;28;45100;-79
2021/11/15 09:38:58;;;;;;;;;35.25;30.25;;;;;8.07;75.78;101317.97;5038669;28;45147;-79
2021/11/15 09:41:26;;;;;;;;;34.25;30.25;;;;;8.08;75.69;101308.22;5038265;28;45731;-79
2021/11/15 09:43:52;;;;;;;;;29.00;27.25;;;;;8.10;75.92;101322.31;5038680;28;45170;-79
2021/11/15 09:46:21;;;;;;;;;32.00;26.25;;;;;8.04;75.64;101317.22;5038539;28;45179;-79
2021/11/15 09:48:55;;;;;;;;;41.25;35.25;;;;;8.05;75.87;101322.47;5038452;28;46131;-79
2021/11/15 09:51:21;;;;;;;;;34.50;32.25;;;;;8.06;75.66;101320.66;5038240;28;45676;-79
2021/11/15 09:53:48;;;;;;;;;39.25;33.75;;;;;8.03;75.59;101321.63;5038654;28;45210;-79
2021/11/15 09:56:14;;;;;;;;;38.50;29.75;;;;;8.05;75.58;101325.09;5038201;28;45283;-79
2021/11/15 09:58:41;;;;;;;;;35.75;30.00;;;;;8.00;75.38;101316.44;5037351;28;45948;-78
2021/11/15 10:01:07;;;;;;;;;36.25;25.75;;;;;8.04;75.80;101323.38;5038003;28;45883;-79
2021/11/15 10:03:33;;;;;;;;;27.00;25.25;;;;;8.05;75.29;101325.09;5038513;28;45193;-79
2021/11/15 10:05:59;;;;;;;;;28.00;24.25;;;;;8.05;75.79;101324.22;5038062;28;45242;-79
2021/11/15 10:08:25;;;;;;;;;28.50;26.00;;;;;8.06;75.66;101325.97;5037767;28;46125;-79
2021/11/15 10:10:58;;;;;;;;;33.75;24.00;;;;;8.07;75.52;101325.06;5037746;28;45273;-79
2021/11/15 10:13:29;;;;;;;;;28.00;25.25;;;;;8.09;75.79;101329.41;5038354;28;45291;-79
2021/11/15 10:16:11;;;;;;;;;31.00;27.75;;;;;8.12;75.56;101323.09;5038160;28;45152;-79
2021/11/15 10:18:52;;;;;;;;;36.25;29.00;;;;;8.15;75.64;101328.28;5037781;28;45634;-79
2021/11/15 10:21:20;;;;;;;;;37.00;28.00;;;;;8.19;75.55;101334.38;5037903;28;45863;-79
2021/11/15 10:23:50;;;;;;;;;32.00;23.25;;;;;8.20;75.18;101328.16;5036732;28;45168;-79
2021/11/15 10:26:44;;;;;;;;;33.50;23.25;;;;;8.19;75.29;101323.78;5037940;28;45262;-79
2021/11/15 10:29:34;;;;;;;;;29.25;22.25;;;;;8.23;75.37;101328.06;5028069;28;46491;-79
2021/11/15 10:32:09;;;;;;;;;32.00;26.50;;;;;8.25;75.60;101313.84;5037528;28;45646;-78
2021/11/15 10:34:50;;;;;;;;;29.25;23.00;;;;;8.29;75.08;101314.59;5038187;28;45241;-78
2021/11/15 10:37:19;;;;;;;;;30.50;22.25;;;;;8.26;75.28;101299.66;5036561;28;45337;-78
2021/11/15 10:40:03;;;;;;;;;27.25;25.00;;;;;8.34;75.10;101306.47;5037602;28;45445;-78
2021/11/15 10:42:30;;;;;;;;;30.25;29.75;;;;;8.32;75.30;101303.03;5037448;28;45955;-78
2021/11/15 10:45:06;;;;;;;;;30.00;24.75;;;;;8.33;75.27;101295.03;5037652;28;45150;-78
2021/11/15 10:47:58;;;;;;;;;30.25;23.25;;;;;8.39;74.91;101299.25;5037915;28;45174;-78
2021/11/15 10:50:29;;;;;;;;;32.75;24.00;;;;;8.41;74.51;101297.44;5037085;28;47294;-78
2021/11/15 10:53:25;;;;;;;;;30.50;28.50;;;;;8.42;74.90;101292.09;5037548;28;45778;-78
2021/11/15 10:56:36;;;;;;;;;25.00;23.50;;;;;8.41;74.74;101289.50;5030813;28;45343;-80
2021/11/15 10:59:15;;;;;;;;;26.50;24.00;;;;;8.41;74.82;101286.84;5035988;28;45349;-79
2021/11/15 11:01:43;;;;;;;;;31.00;25.00;;;;;8.45;74.51;101294.66;5037303;28;45925;-79
2021/11/15 11:04:23;;;;;;;;;26.50;23.00;;;;;8.48;74.51;101279.56;5037317;28;45193;-78
2021/11/15 11:06:56;;;;;;;;;28.50;26.50;;;;;8.52;74.93;101281.19;5035930;28;45108;-78
2021/11/15 11:09:35;;;;;;;;;30.00;24.00;;;;;8.52;74.71;101282.03;5036723;28;45639;-80
2021/11/15 11:12:14;;;;;;;;;31.50;25.25;;;;;8.56;74.57;101288.09;5036764;28;46082;-79
2021/11/15 11:14:43;;;;;;;;;28.50;26.75;;;;;8.56;74.42;101282.81;5037091;28;45748;-78
2021/11/15 11:17:09;;;;;;;;;28.50;24.50;;;;;8.57;74.30;101287.19;5037272;28;45278;-80